Time;durP1;ratioP1;P1;durP2;ratioP2;P2;SDS_P1;SDS_P2;PMS_P1;PMS_P2;Temp;Humidity;BMP_temperature;BMP_pressure;BME280_temperature;BME280_humidity;BME280_pressure;Samples;Min_cycle;Max_cycle;Signal;HPM_P1;HPM_P2
2024/03/06 00:01:08;0.00;0.00;0.62;0.00;0.00;0.62;5.00;4.50;;;22.80;23.40;;;;;;2371680;53;20787;-66
2024/03/06 00:03:53;0.00;0.00;0.62;0.00;0.00;0.62;3.97;3.57;;;22.80;23.40;;;;;;2248506;61;20381;-67
2024/03/06 00:06:38;0.00;0.00;0.62;0.00;0.00;0.62;4.97;4.10;;;22.80;23.30;;;;;;2251238;61;20519;-66
2024/03/06 00:09:22;0.00;0.00;0.62;0.00;0.00;0.62;4.00;3.53;;;22.80;23.30;;;;;;2251257;61;20370;-67
2024/03/06 00:12:07;0.00;0.00;0.62;0.00;0.00;0.62;3.93;3.47;;;22.80;23.30;;;;;;2245729;61;20370;-67
2024/03/06 00:14:53;0.00;0.00;0.62;0.00;0.00;0.62;4.70;3.90;;;22.80;23.30;;;;;;2253653;61;20385;-67
2024/03/06 00:17:38;0.00;0.00;0.62;0.00;0.00;0.62;4.53;4.13;;;22.80;23.30;;;;;;2255815;61;20374;-67
2024/03/06 00:20:22;0.00;0.00;0.62;0.00;0.00;0.62;5.00;3.80;;;22.80;23.40;;;;;;2255811;61;20405;-66
2024/03/06 00:23:07;0.00;0.00;0.62;0.00;0.00;0.62;4.80;4.30;;;22.80;23.90;;;;;;2415339;53;20402;-67
2024/03/06 00:25:52;0.00;0.00;0.62;0.00;0.00;0.62;3.90;3.50;;;22.80;23.30;;;;;;2255622;61;20373;-65
2024/03/06 00:28:37;0.00;0.00;0.62;0.00;0.00;0.62;3.80;3.50;;;22.80;23.30;;;;;;2254902;61;20377;-66
2024/03/06 00:31:23;0.00;0.00;0.62;0.00;0.00;0.62;3.90;3.50;;;22.80;23.30;;;;;;2252247;61;20823;-67
2024/03/06 00:34:07;0.00;0.00;0.62;0.00;0.00;0.62;5.13;4.27;;;22.70;23.20;;;;;;2251640;61;21055;-67
2024/03/06 00:36:52;0.00;0.00;0.62;0.00;0.00;0.62;4.40;3.87;;;22.80;23.30;;;;;;2251260;61;20438;-67
2024/03/06 00:39:36;0.00;0.00;0.62;0.00;0.00;0.62;4.23;3.60;;;22.80;23.30;;;;;;2762444;45;20367;-67
2024/03/06 00:42:21;0.00;0.00;0.62;0.00;0.00;0.62;4.43;3.80;;;22.70;23.20;;;;;;2247558;61;20448;-66
2024/03/06 00:45:06;0.00;0.00;0.62;0.00;0.00;0.62;4.03;3.60;;;22.80;23.30;;;;;;2254406;61;20389;-67
2024/03/06 00:47:53;0.00;0.00;0.62;0.00;0.00;0.62;5.07;4.17;;;22.80;23.20;;;;;;2255666;61;20371;-66
2024/03/06 00:50:37;0.00;0.00;0.62;0.00;0.00;0.62;3.93;3.63;;;22.80;23.20;;;;;;2255311;61;20381;-67
2024/03/06 00:53:22;0.00;0.00;0.62;0.00;0.00;0.62;5.10;4.40;;;22.80;23.20;;;;;;2252358;61;20389;-67
2024/03/06 00:56:07;0.00;0.00;0.62;0.00;0.00;0.62;4.63;4.10;;;22.80;23.20;;;;;;2251604;61;20786;-67
2024/03/06 00:58:52;0.00;0.00;0.62;0.00;0.00;0.62;5.47;3.80;;;22.70;23.10;;;;;;2251122;61;20371;-67
2024/03/06 01:01:37;0.00;0.00;0.62;0.00;0.00;0.62;4.30;3.90;;;22.70;23.10;;;;;;2255487;61;20373;-66
2024/03/06 01:04:23;0.00;0.00;0.62;0.00;0.00;0.62;4.40;3.90;;;22.80;23.20;;;;;;2255419;61;20796;-66
2024/03/06 01:07:08;0.00;0.00;0.62;0.00;0.00;0.62;3.90;3.60;;;22.80;23.20;;;;;;2252288;61;20894;-66
2024/03/06 01:09:52;0.00;0.00;0.62;0.00;0.00;0.62;3.90;3.60;;;22.80;23.20;;;;;;2255559;61;20365;-66
2024/03/06 01:12:37;0.00;0.00;0.62;0.00;0.00;0.62;5.30;4.53;;;22.80;23.20;;;;;;2255044;61;20401;-66
2024/03/06 01:15:22;0.00;0.00;0.62;0.00;0.00;0.62;4.30;3.90;;;22.70;23.70;;;;;;2255117;61;20863;-67
2024/03/06 01:18:06;0.00;0.00;0.62;0.00;0.00;0.62;3.83;3.30;;;22.70;23.10;;;;;;2255579;61;20902;-68
2024/03/06 01:20:52;0.00;0.00;0.62;0.00;0.00;0.62;5.17;3.90;;;22.70;23.10;;;;;;2255492;61;20374;-67
2024/03/06 01:23:37;0.00;0.00;0.62;0.00;0.00;0.62;4.10;3.70;;;22.70;23.10;;;;;;2246871;61;20439;-67
2024/03/06 01:26:21;0.00;0.00;0.62;0.00;0.00;0.62;3.70;3.40;;;22.70;23.10;;;;;;2247602;61;20400;-67
2024/03/06 01:29:06;0.00;0.00;0.62;0.00;0.00;0.62;3.63;3.30;;;22.70;23.10;;;;;;2246350;61;20379;-66
2024/03/06 01:31:50;0.00;0.00;0.62;0.00;0.00;0.62;4.20;3.80;;;22.70;23.10;;;;;;2247303;61;20371;-68
2024/03/06 01:34:35;0.00;0.00;0.62;0.00;0.00;0.62;3.77;3.40;;;22.70;23.10;;;;;;2247463;61;20390;-66
2024/03/06 01:37:21;0.00;0.00;0.62;0.00;0.00;0.62;4.53;3.60;;;22.70;23.10;;;;;;2467904;45;20391;-67
2024/03/06 01:40:08;0.00;0.00;0.62;0.00;0.00;0.62;4.27;3.87;;;22.70;23.10;;;;;;2244242;61;20368;-67
2024/03/06 01:42:53;0.00;0.00;0.62;0.00;0.00;0.62;6.00;3.73;;;22.70;23.10;;;;;;2246954;61;20371;-67
2024/03/06 01:45:39;0.00;0.00;0.62;0.00;0.00;0.62;4.03;3.53;;;22.70;23.10;;;;;;2247043;61;20939;-66
2024/03/06 01:48:29;0.00;0.00;0.62;0.00;0.00;0.62;3.67;3.37;;;22.70;23.10;;;;;;2247323;61;20396;-67
2024/03/06 01:51:14;0.00;0.00;0.62;0.00;0.00;0.62;4.20;3.80;;;22.70;23.20;;;;;;2246764;61;20371;-66
2024/03/06 01:54:03;0.00;0.00;0.62;0.00;0.00;0.62;5.27;4.10;;;22.70;23.10;;;;;;2247325;61;20727;-66
2024/03/06 01:56:50;0.00;0.00;0.62;0.00;0.00;0.62;4.00;3.60;;;22.70;23.10;;;;;;2244082;61;20848;-67
2024/03/06 01:59:35;0.00;0.00;0.62;0.00;0.00;0.62;4.20;3.80;;;22.70;23.10;;;;;;2498286;45;20932;-66
2024/03/06 02:02:20;0.00;0.00;0.62;0.00;0.00;0.62;4.33;3.93;;;22.70;23.10;;;;;;2247582;61;20358;-66
2024/03/06 02:05:06;0.00;0.00;0.62;0.00;0.00;0.62;4.60;3.87;;;22.70;23.10;;;;;;2246695;61;20443;-67
2024/03/06 02:07:53;0.00;0.00;0.62;0.00;0.00;0.62;4.70;3.83;;;22.70;23.10;;;;;;2247201;61;20426;-66
2024/03/06 02:10:39;0.00;0.00;0.62;0.00;0.00;0.62;4.00;3.57;;;22.70;23.10;;;;;;2247443;61;20403;-66
2024/03/06 02:13:24;0.00;0.00;0.62;0.00;0.00;0.62;3.90;3.20;;;22.70;23.10;;;;;;2246187;61;20447;-67
2024/03/06 02:16:10;0.00;0.00;0.62;0.00;0.00;0.62;4.30;3.90;;;22.70;23.10;;;;;;2244217;61;20399;-65
2024/03/06 02:18:58;0.00;0.00;0.62;0.00;0.00;0.62;4.97;3.40;;;22.70;23.00;;;;;;2246756;61;20523;-69
2024/03/06 02:21:44;0.00;0.00;0.62;0.00;0.00;0.62;4.00;3.53;;;22.70;23.00;;;;;;2249708;58;20420;-65
2024/03/06 02:24:28;0.00;0.00;0.62;0.00;0.00;0.62;4.13;3.73;;;22.70;23.00;;;;;;2247220;61;20952;-66
2024/03/06 02:27:13;0.00;0.00;0.62;0.00;0.00;0.62;3.40;3.10;;;22.70;23.00;;;;;;2247800;61;20412;-66
2024/03/06 02:29:57;0.00;0.00;0.62;0.00;0.00;0.62;4.10;3.70;;;22.70;23.00;;;;;;2248103;61;20545;-65
2024/03/06 02:32:43;0.00;0.00;0.62;0.00;0.00;0.62;4.33;3.93;;;22.70;23.00;;;;;;2251063;61;20369;-66
2024/03/06 02:35:28;0.00;0.00;0.62;0.00;0.00;0.62;5.20;3.63;;;22.80;23.00;;;;;;2250474;61;20359;-69
2024/03/06 02:38:13;0.00;0.00;0.62;0.00;0.00;0.62;4.37;3.97;;;22.70;22.90;;;;;;2255269;61;20413;-65
2024/03/06 02:40:59;0.00;0.00;0.62;0.00;0.00;0.62;4.50;3.73;;;22.80;23.00;;;;;;2255643;61;20373;-67
2024/03/06 02:43:44;0.00;0.00;0.62;0.00;0.00;0.62;4.53;4.13;;;22.70;22.90;;;;;;2444045;45;20381;-66
2024/03/06 02:46:29;0.00;0.00;0.62;0.00;0.00;0.62;5.13;4.07;;;22.80;23.00;;;;;;2252069;61;20394;-66
2024/03/06 02:49:13;0.00;0.00;0.62;0.00;0.00;0.62;4.87;4.47;;;22.80;22.90;;;;;;2251271;61;20402;-65
2024/03/06 02:52:00;0.00;0.00;0.62;0.00;0.00;0.62;4.50;4.03;;;22.80;22.90;;;;;;2251735;61;20361;-65
2024/03/06 02:54:46;0.00;0.00;0.62;0.00;0.00;0.62;4.37;3.97;;;22.70;22.90;;;;;;2251773;61;20394;-66
2024/03/06 02:57:31;0.00;0.00;0.62;0.00;0.00;0.62;4.20;3.50;;;22.70;22.90;;;;;;2253966;61;20374;-66
2024/03/06 03:00:16;0.00;0.00;0.62;0.00;0.00;0.62;3.97;3.40;;;22.80;22.90;;;;;;2555121;45;20418;-66
2024/03/06 03:03:01;0.00;0.00;0.62;0.00;0.00;0.62;4.27;3.83;;;22.80;22.90;;;;;;2247892;61;20539;-66
2024/03/06 03:05:46;0.00;0.00;0.62;0.00;0.00;0.62;4.20;3.80;;;22.70;22.80;;;;;;2251064;61;20385;-66
2024/03/06 03:08:30;0.00;0.00;0.62;0.00;0.00;0.62;4.10;3.70;;;22.70;22.80;;;;;;2251817;61;20923;-65
2024/03/06 03:11:16;0.00;0.00;0.62;0.00;0.00;0.62;4.40;4.00;;;22.70;22.80;;;;;;2254640;61;20391;-66
2024/03/06 03:14:01;0.00;0.00;0.62;0.00;0.00;0.62;4.20;3.80;;;22.70;22.80;;;;;;2251465;61;20500;-67
2024/03/06 03:16:45;0.00;0.00;0.62;0.00;0.00;0.62;4.23;3.70;;;22.70;22.90;;;;;;2251946;61;20398;-66
2024/03/06 03:19:30;0.00;0.00;0.62;0.00;0.00;0.62;4.53;4.13;;;22.70;22.80;;;;;;2250982;61;20474;-67
2024/03/06 03:22:14;0.00;0.00;0.62;0.00;0.00;0.62;4.53;3.30;;;22.70;22.80;;;;;;2252224;61;20374;-66
2024/03/06 03:24:59;0.00;0.00;0.62;0.00;0.00;0.62;4.53;4.13;;;22.70;22.90;;;;;;2267078;47;20483;-68
2024/03/06 03:27:45;0.00;0.00;0.62;0.00;0.00;0.62;4.23;3.50;;;22.70;22.90;;;;;;2263616;61;20439;-68
2024/03/06 03:30:29;0.00;0.00;0.62;0.00;0.00;0.62;4.57;4.17;;;22.70;22.90;;;;;;2260751;61;20767;-68
2024/03/06 03:33:14;0.00;0.00;0.62;0.00;0.00;0.62;4.00;3.40;;;22.70;22.90;;;;;;2263356;61;20760;-68
2024/03/06 03:35:59;0.00;0.00;0.62;0.00;0.00;0.62;4.80;3.90;;;22.70;22.90;;;;;;2261328;61;20477;-67
2024/03/06 03:38:44;0.00;0.00;0.62;0.00;0.00;0.62;4.00;3.50;;;22.70;22.90;;;;;;2259688;61;20369;-67
2024/03/06 03:41:29;0.00;0.00;0.62;0.00;0.00;0.62;4.23;3.83;;;22.70;22.90;;;;;;2259997;61;20958;-68
2024/03/06 03:44:16;0.00;0.00;0.62;0.00;0.00;0.62;4.23;3.50;;;22.70;22.90;;;;;;2260249;61;20387;-67
2024/03/06 03:47:00;0.00;0.00;0.62;0.00;0.00;0.62;5.10;3.40;;;22.70;22.90;;;;;;2263509;61;20456;-67
2024/03/06 03:49:45;0.00;0.00;0.62;0.00;0.00;0.62;4.80;4.30;;;22.70;22.90;;;;;;2262771;61;20444;-67
2024/03/06 03:52:30;0.00;0.00;0.62;0.00;0.00;0.62;4.33;3.43;;;22.70;22.80;;;;;;2259738;61;20417;-68
2024/03/06 03:55:15;0.00;0.00;0.62;0.00;0.00;0.62;4.53;3.93;;;22.70;22.80;;;;;;2260127;61;20415;-67
2024/03/06 03:58:00;0.00;0.00;0.62;0.00;0.00;0.62;5.10;3.33;;;22.70;22.80;;;;;;2263548;61;20896;-68
2024/03/06 04:00:47;0.00;0.00;0.62;0.00;0.00;0.62;3.93;3.50;;;22.70;22.80;;;;;;2263499;61;20364;-67
2024/03/06 04:03:31;0.00;0.00;0.62;0.00;0.00;0.62;4.00;3.60;;;22.70;22.90;;;;;;2263720;61;20396;-67
2024/03/06 04:06:16;0.00;0.00;0.62;0.00;0.00;0.62;4.87;3.20;;;22.70;22.80;;;;;;2260065;61;20385;-67
2024/03/06 04:09:01;0.00;0.00;0.62;0.00;0.00;0.62;4.00;3.70;;;22.70;22.80;;;;;;2261369;61;20372;-67
2024/03/06 04:11:45;0.00;0.00;0.62;0.00;0.00;0.62;4.80;3.70;;;22.70;22.80;;;;;;2263135;61;20347;-68
2024/03/06 04:14:30;0.00;0.00;0.62;0.00;0.00;0.62;4.00;3.60;;;22.70;22.80;;;;;;2259804;61;20388;-68
2024/03/06 04:17:16;0.00;0.00;0.62;0.00;0.00;0.62;4.73;4.20;;;22.70;22.80;;;;;;2259369;61;20365;-67
2024/03/06 04:20:00;0.00;0.00;0.62;0.00;0.00;0.62;4.60;4.20;;;22.70;22.80;;;;;;2260782;61;20384;-67
2024/03/06 04:22:46;0.00;0.00;0.62;0.00;0.00;0.62;4.60;4.20;;;22.70;22.70;;;;;;2263159;61;20348;-69
2024/03/06 04:25:30;0.00;0.00;0.62;0.00;0.00;0.62;4.17;3.77;;;22.70;22.70;;;;;;2259569;61;20421;-67
2024/03/06 04:28:15;0.00;0.00;0.62;0.00;0.00;0.62;4.50;3.70;;;22.70;23.20;;;;;;2259192;61;20365;-68
2024/03/06 04:30:59;0.00;0.00;0.62;0.00;0.00;0.62;4.30;3.73;;;22.70;23.20;;;;;;2261182;61;20363;-67
2024/03/06 04:33:45;0.00;0.00;0.62;0.00;0.00;0.62;6.77;4.20;;;22.70;22.70;;;;;;2263493;61;20783;-68
2024/03/06 04:36:30;0.00;0.00;0.62;0.00;0.00;0.62;5.30;3.63;;;22.70;23.20;;;;;;2520194;53;20402;-68
2024/03/06 04:39:15;0.00;0.00;0.62;0.00;0.00;0.62;4.40;4.00;;;22.70;22.70;;;;;;2258339;61;20407;-68
2024/03/06 04:41:59;0.00;0.00;0.62;0.00;0.00;0.62;4.03;3.67;;;22.70;22.70;;;;;;2260986;61;20371;-68
2024/03/06 04:44:45;0.00;0.00;0.62;0.00;0.00;0.62;4.10;3.50;;;22.70;22.70;;;;;;2263700;61;20460;-67
2024/03/06 04:47:31;0.00;0.00;0.62;0.00;0.00;0.62;5.67;3.63;;;22.70;22.70;;;;;;2500840;53;20364;-68
2024/03/06 04:50:17;0.00;0.00;0.62;0.00;0.00;0.62;5.00;3.90;;;22.70;22.70;;;;;;2260331;61;20457;-67
2024/03/06 04:53:02;0.00;0.00;0.62;0.00;0.00;0.62;3.93;3.47;;;22.70;22.70;;;;;;2260927;61;20368;-68
2024/03/06 04:55:46;0.00;0.00;0.62;0.00;0.00;0.62;5.33;4.80;;;22.70;22.70;;;;;;2259327;61;20365;-67
2024/03/06 04:58:31;0.00;0.00;0.62;0.00;0.00;0.62;5.20;4.07;;;22.70;22.70;;;;;;2622671;45;20365;-67
2024/03/06 05:01:15;0.00;0.00;0.62;0.00;0.00;0.62;5.27;4.33;;;22.70;22.70;;;;;;2260970;61;20885;-68
2024/03/06 05:04:00;0.00;0.00;0.62;0.00;0.00;0.62;3.80;3.47;;;22.60;22.70;;;;;;2263006;61;20447;-69
2024/03/06 05:06:46;0.00;0.00;0.62;0.00;0.00;0.62;4.07;3.50;;;22.70;22.70;;;;;;2263634;61;20514;-68
2024/03/06 05:09:31;0.00;0.00;0.62;0.00;0.00;0.62;4.80;4.13;;;22.70;22.70;;;;;;2490667;53;20397;-69
2024/03/06 05:12:16;0.00;0.00;0.62;0.00;0.00;0.62;4.20;3.80;;;22.70;22.70;;;;;;2260214;61;20960;-68
2024/03/06 05:15:01;0.00;0.00;0.62;0.00;0.00;0.62;4.30;3.90;;;22.70;22.80;;;;;;2262244;61;20731;-68
2024/03/06 05:17:45;0.00;0.00;0.62;0.00;0.00;0.62;5.57;4.27;;;22.60;22.70;;;;;;2259727;61;20408;-68
2024/03/06 05:20:31;0.00;0.00;0.62;0.00;0.00;0.62;5.10;4.60;;;22.60;22.70;;;;;;2259281;61;20443;-68
2024/03/06 05:23:17;0.00;0.00;0.62;0.00;0.00;0.62;4.93;4.37;;;22.60;22.70;;;;;;2258887;61;20396;-68
2024/03/06 05:26:02;0.00;0.00;0.62;0.00;0.00;0.62;5.30;4.53;;;22.60;22.70;;;;;;2260027;61;20900;-67
2024/03/06 05:28:46;0.00;0.00;0.62;0.00;0.00;0.62;4.63;4.20;;;22.60;22.70;;;;;;2261820;61;20364;-67
2024/03/06 05:31:32;0.00;0.00;0.62;0.00;0.00;0.62;4.30;3.90;;;22.60;22.70;;;;;;2259210;61;20885;-67
2024/03/06 05:34:16;0.00;0.00;0.62;0.00;0.00;0.62;5.43;4.83;;;22.60;22.70;;;;;;2258990;61;20388;-68
2024/03/06 05:37:03;0.00;0.00;0.62;0.00;0.00;0.62;4.90;4.40;;;22.60;22.70;;;;;;2259122;61;20400;-67
2024/03/06 05:39:49;0.00;0.00;0.62;0.00;0.00;0.62;5.70;4.07;;;22.60;22.80;;;;;;2259476;61;20488;-67
2024/03/06 05:42:34;0.00;0.00;0.62;0.00;0.00;0.62;4.20;3.80;;;22.60;22.80;;;;;;2259323;61;20496;-67
2024/03/06 05:45:19;0.00;0.00;0.62;0.00;0.00;0.62;5.43;4.33;;;22.60;22.80;;;;;;2258872;61;20953;-68
2024/03/06 05:48:04;0.00;0.00;0.62;0.00;0.00;0.62;5.33;4.83;;;22.60;22.80;;;;;;2259206;61;20420;-68
2024/03/06 05:50:48;0.00;0.00;0.62;0.00;0.00;0.62;5.30;4.80;;;22.60;22.70;;;;;;2259518;61;20416;-68
2024/03/06 05:53:37;0.00;0.00;0.62;0.00;0.00;0.62;4.67;4.23;;;22.60;22.70;;;;;;2258958;61;20439;-67
2024/03/06 05:56:23;0.00;0.00;0.62;0.00;0.00;0.62;4.70;4.20;;;22.60;22.80;;;;;;2261212;61;20819;-67
2024/03/06 05:59:08;0.00;0.00;0.62;0.00;0.00;0.62;5.00;3.80;;;22.60;22.70;;;;;;2259449;61;21017;-68
2024/03/06 06:01:53;0.00;0.00;0.62;0.00;0.00;0.62;5.50;4.33;;;22.60;22.70;;;;;;2262892;61;20348;-68
2024/03/06 06:04:37;0.00;0.00;0.62;0.00;0.00;0.62;5.10;4.60;;;22.60;23.30;;;;;;2263100;61;20467;-68
2024/03/06 06:07:22;0.00;0.00;0.62;0.00;0.00;0.62;7.77;4.60;;;22.60;22.70;;;;;;2263101;61;20475;-68
2024/03/06 06:10:09;0.00;0.00;0.62;0.00;0.00;0.62;5.33;4.70;;;22.60;22.70;;;;;;2262861;61;20470;-69
2024/03/06 06:12:55;0.00;0.00;0.62;0.00;0.00;0.62;4.60;4.20;;;22.60;22.70;;;;;;2259384;61;20869;-68
2024/03/06 06:15:41;0.00;0.00;0.62;0.00;0.00;0.62;6.37;4.80;;;22.60;22.70;;;;;;2259861;61;20886;-68
2024/03/06 06:18:25;0.00;0.00;0.62;0.00;0.00;0.62;4.47;4.07;;;22.60;22.70;;;;;;2262927;61;20360;-68
2024/03/06 06:21:10;0.00;0.00;0.62;0.00;0.00;0.62;4.57;4.17;;;22.60;22.70;;;;;;2259996;61;20349;-66
2024/03/06 06:23:56;0.00;0.00;0.62;0.00;0.00;0.62;5.00;4.40;;;22.60;23.20;;;;;;2263080;61;20399;-68
2024/03/06 06:26:42;0.00;0.00;0.62;0.00;0.00;0.62;5.80;5.10;;;22.60;22.70;;;;;;2259700;61;20392;-67
2024/03/06 06:29:29;0.00;0.00;0.62;0.00;0.00;0.62;5.57;4.80;;;22.60;22.70;;;;;;2258841;61;20875;-68
2024/03/06 06:32:13;0.00;0.00;0.62;0.00;0.00;0.62;4.57;4.17;;;22.60;22.60;;;;;;2259069;61;20412;-68
2024/03/06 06:34:58;0.00;0.00;0.62;0.00;0.00;0.62;5.37;4.87;;;22.60;22.70;;;;;;2259388;61;20379;-68
2024/03/06 06:37:43;0.00;0.00;0.62;0.00;0.00;0.62;5.30;4.30;;;22.60;22.60;;;;;;2258885;61;20496;-69
2024/03/06 06:40:28;0.00;0.00;0.62;0.00;0.00;0.62;5.20;4.70;;;22.60;22.60;;;;;;2259142;61;20826;-68
2024/03/06 06:43:15;0.00;0.00;0.62;0.00;0.00;0.62;5.40;4.90;;;22.50;22.50;;;;;;2259260;61;20443;-68
2024/03/06 06:46:01;0.00;0.00;0.62;0.00;0.00;0.62;6.00;4.80;;;22.50;22.50;;;;;;2259074;61;20726;-68
2024/03/06 06:48:47;0.00;0.00;0.62;0.00;0.00;0.62;6.40;5.80;;;22.50;22.60;;;;;;2258338;61;20910;-68
2024/03/06 06:51:33;0.00;0.00;0.62;0.00;0.00;0.62;5.50;4.73;;;22.60;22.60;;;;;;2258944;61;20793;-68
2024/03/06 06:54:17;0.00;0.00;0.62;0.00;0.00;0.62;6.23;4.80;;;22.50;22.60;;;;;;2263297;61;20850;-68
2024/03/06 06:57:03;0.00;0.00;0.62;0.00;0.00;0.62;5.33;4.70;;;22.60;22.70;;;;;;2674395;45;20803;-68
2024/03/06 06:59:47;0.00;0.00;0.62;0.00;0.00;0.62;5.27;4.63;;;22.50;22.50;;;;;;2262761;61;20419;-68
2024/03/06 07:02:33;0.00;0.00;0.62;0.00;0.00;0.62;5.10;4.60;;;22.50;22.60;;;;;;2261885;61;20361;-68
2024/03/06 07:05:18;0.00;0.00;0.62;0.00;0.00;0.62;5.27;4.77;;;22.50;22.60;;;;;;2262204;61;20388;-67
2024/03/06 07:08:04;0.00;0.00;0.62;0.00;0.00;0.62;5.20;4.30;;;22.50;22.60;;;;;;2583386;45;20363;-68
2024/03/06 07:10:48;0.00;0.00;0.62;0.00;0.00;0.62;6.27;5.63;;;22.50;22.60;;;;;;2262967;61;20803;-67
2024/03/06 07:13:33;0.00;0.00;0.62;0.00;0.00;0.62;5.67;5.17;;;22.50;22.60;;;;;;2261414;61;20392;-68
2024/03/06 07:16:19;0.00;0.00;0.62;0.00;0.00;0.62;5.10;4.50;;;22.50;22.60;;;;;;2259380;61;20381;-68
2024/03/06 07:19:05;0.00;0.00;0.62;0.00;0.00;0.62;5.13;4.63;;;22.50;22.60;;;;;;2259866;58;20882;-68
2024/03/06 07:21:49;0.00;0.00;0.62;0.00;0.00;0.62;5.97;4.77;;;22.50;22.70;;;;;;2262949;61;20376;-67
2024/03/06 07:24:34;0.00;0.00;0.62;0.00;0.00;0.62;5.53;5.03;;;22.50;22.60;;;;;;2263026;61;20814;-67
2024/03/06 07:27:19;0.00;0.00;0.62;0.00;0.00;0.62;5.27;4.77;;;22.50;22.60;;;;;;2263482;61;20402;-68
2024/03/06 07:30:07;0.00;0.00;0.62;0.00;0.00;0.62;5.80;4.60;;;22.50;22.60;;;;;;2312832;58;20407;-68
2024/03/06 07:32:51;0.00;0.00;0.62;0.00;0.00;0.62;5.13;4.63;;;22.50;22.60;;;;;;2261809;61;20477;-68
2024/03/06 07:35:37;0.00;0.00;0.62;0.00;0.00;0.62;5.90;5.30;;;22.40;22.50;;;;;;2262240;61;20357;-68
2024/03/06 07:38:23;0.00;0.00;0.62;0.00;0.00;0.62;5.90;5.30;;;22.40;22.60;;;;;;2491498;53;20382;-68
2024/03/06 07:41:08;0.00;0.00;0.62;0.00;0.00;0.62;5.80;5.20;;;22.50;22.70;;;;;;2263272;61;20422;-68
2024/03/06 07:43:52;0.00;0.00;0.62;0.00;0.00;0.62;5.50;4.90;;;22.50;22.70;;;;;;2263516;61;20391;-68
2024/03/06 07:46:37;0.00;0.00;0.62;0.00;0.00;0.62;5.33;4.50;;;22.50;22.70;;;;;;2262865;61;20670;-68
2024/03/06 07:49:21;0.00;0.00;0.62;0.00;0.00;0.62;5.63;5.13;;;22.50;22.70;;;;;;2263830;61;20429;-68
2024/03/06 07:52:07;0.00;0.00;0.62;0.00;0.00;0.62;5.03;4.40;;;22.40;22.60;;;;;;2263542;61;20414;-68
2024/03/06 07:54:52;0.00;0.00;0.62;0.00;0.00;0.62;4.50;4.10;;;22.40;22.60;;;;;;2263642;61;20434;-68
2024/03/06 07:57:36;0.00;0.00;0.62;0.00;0.00;0.62;5.03;4.53;;;22.40;22.60;;;;;;2263684;61;20390;-68
2024/03/06 08:00:22;0.00;0.00;0.62;0.00;0.00;0.62;5.57;4.70;;;22.40;22.60;;;;;;2263823;61;20892;-68
2024/03/06 08:03:06;0.00;0.00;0.62;0.00;0.00;0.62;5.63;4.87;;;22.40;22.60;;;;;;2263616;61;20406;-68
2024/03/06 08:05:55;0.00;0.00;0.62;0.00;0.00;0.62;5.40;4.90;;;22.40;22.60;;;;;;2263380;61;20798;-68
2024/03/06 08:08:43;0.00;0.00;0.62;0.00;0.00;0.62;5.43;4.80;;;22.40;22.60;;;;;;2263213;61;20877;-68
2024/03/06 08:11:28;0.00;0.00;0.62;0.00;0.00;0.62;6.53;5.40;;;22.40;22.60;;;;;;2263982;61;20394;-68
2024/03/06 08:14:14;0.00;0.00;0.62;0.00;0.00;0.62;5.57;5.07;;;22.40;22.60;;;;;;2263419;61;20419;-68
2024/03/06 08:16:59;0.00;0.00;0.62;0.00;0.00;0.62;5.33;4.83;;;22.40;22.60;;;;;;2263695;61;20363;-67
2024/03/06 08:19:43;0.00;0.00;0.62;0.00;0.00;0.62;5.10;4.60;;;22.40;22.60;;;;;;2263265;61;20920;-67
2024/03/06 08:22:28;0.00;0.00;0.62;0.00;0.00;0.62;5.70;5.10;;;22.40;22.60;;;;;;2263930;61;20407;-67
2024/03/06 08:25:14;0.00;0.00;0.62;0.00;0.00;0.62;5.43;4.90;;;22.40;22.60;;;;;;2260001;61;20427;-68
2024/03/06 08:27:59;0.00;0.00;0.62;0.00;0.00;0.62;5.40;4.57;;;22.40;22.70;;;;;;2263380;61;20787;-67
2024/03/06 08:30:44;0.00;0.00;0.62;0.00;0.00;0.62;5.13;4.37;;;22.40;22.70;;;;;;2255672;61;20450;-68
2024/03/06 08:33:28;0.00;0.00;0.62;0.00;0.00;0.62;5.70;5.13;;;22.40;22.70;;;;;;2259670;61;20373;-68
2024/03/06 08:36:13;0.00;0.00;0.62;0.00;0.00;0.62;5.77;5.10;;;22.40;22.70;;;;;;2263100;61;20524;-68
2024/03/06 08:38:58;0.00;0.00;0.62;0.00;0.00;0.62;5.10;4.60;;;22.40;22.70;;;;;;2261779;61;20772;-67
2024/03/06 08:41:44;0.00;0.00;0.62;0.00;0.00;0.62;5.53;4.90;;;22.40;22.70;;;;;;2259678;61;20349;-67
2024/03/06 08:44:28;0.00;0.00;0.62;0.00;0.00;0.62;6.23;4.97;;;22.40;22.60;;;;;;2263610;61;20411;-68
2024/03/06 08:47:13;0.00;0.00;0.62;0.00;0.00;0.62;5.93;4.97;;;22.40;22.70;;;;;;2262810;61;20388;-67
2024/03/06 08:49:57;0.00;0.00;0.62;0.00;0.00;0.62;6.60;5.53;;;22.40;22.70;;;;;;2263169;61;20364;-67
2024/03/06 08:52:42;0.00;0.00;0.62;0.00;0.00;0.62;7.70;6.27;;;22.40;22.70;;;;;;2263301;61;20363;-68
2024/03/06 08:55:28;0.00;0.00;0.62;0.00;0.00;0.62;6.23;5.40;;;22.40;22.70;;;;;;2689543;45;20943;-69
2024/03/06 08:58:14;0.00;0.00;0.62;0.00;0.00;0.62;7.67;5.63;;;22.40;22.70;;;;;;2258198;61;20365;-68
2024/03/06 09:00:59;0.00;0.00;0.62;0.00;0.00;0.62;6.03;5.27;;;22.40;22.70;;;;;;2259628;61;20377;-68
2024/03/06 09:03:43;0.00;0.00;0.62;0.00;0.00;0.62;6.30;5.60;;;22.40;22.70;;;;;;2259600;61;20572;-68
2024/03/06 09:06:28;0.00;0.00;0.62;0.00;0.00;0.62;5.93;5.33;;;22.40;22.70;;;;;;2780384;45;20891;-68
2024/03/06 09:09:14;0.00;0.00;0.62;0.00;0.00;0.62;6.60;5.90;;;22.40;22.70;;;;;;2262291;61;20790;-68
2024/03/06 09:12:00;0.00;0.00;0.62;0.00;0.00;0.62;6.20;5.57;;;22.40;22.70;;;;;;2263384;61;20903;-68
2024/03/06 09:14:46;0.00;0.00;0.62;0.00;0.00;0.62;6.87;6.03;;;22.40;22.70;;;;;;2263598;61;20391;-68
2024/03/06 09:17:31;0.00;0.00;0.62;0.00;0.00;0.62;6.80;5.93;;;22.40;22.80;;;;;;2497132;53;20421;-67
2024/03/06 09:20:16;0.00;0.00;0.62;0.00;0.00;0.62;6.27;5.60;;;22.40;22.70;;;;;;2260464;61;20764;-68
2024/03/06 09:23:00;0.00;0.00;0.62;0.00;0.00;0.62;6.30;5.43;;;22.40;22.80;;;;;;2263643;61;20368;-68
2024/03/06 09:25:45;0.00;0.00;0.62;0.00;0.00;0.62;7.10;6.13;;;22.40;22.70;;;;;;2263613;61;20383;-68
2024/03/06 09:28:30;0.00;0.00;0.62;0.00;0.00;0.62;6.57;5.90;;;22.40;22.80;;;;;;2668119;45;20365;-69
2024/03/06 09:31:16;0.00;0.00;0.62;0.00;0.00;0.62;6.20;5.60;;;22.40;22.80;;;;;;2259129;61;20898;-68
2024/03/06 09:34:01;0.00;0.00;0.62;0.00;0.00;0.62;7.90;6.87;;;22.40;22.80;;;;;;2263106;61;20415;-68
2024/03/06 09:36:48;0.00;0.00;0.62;0.00;0.00;0.62;7.27;6.20;;;22.40;22.80;;;;;;2263392;61;20352;-67
2024/03/06 09:39:35;0.00;0.00;0.62;0.00;0.00;0.62;6.80;5.73;;;22.40;22.80;;;;;;2263096;61;20360;-68
2024/03/06 09:42:20;0.00;0.00;0.62;0.00;0.00;0.62;6.67;5.50;;;22.40;22.80;;;;;;2263231;61;20380;-67
2024/03/06 09:45:06;0.00;0.00;0.62;0.00;0.00;0.62;7.67;6.50;;;22.40;22.80;;;;;;2262254;61;21279;-69
2024/03/06 09:47:52;0.00;0.00;0.62;0.00;0.00;0.62;7.10;6.40;;;22.40;22.80;;;;;;2263554;61;20372;-69
2024/03/06 09:50:41;0.00;0.00;0.62;0.00;0.00;0.62;7.03;6.10;;;22.40;22.80;;;;;;2263111;61;20881;-69
2024/03/06 09:53:26;0.00;0.00;0.62;0.00;0.00;0.62;8.17;7.30;;;22.40;22.80;;;;;;2262773;61;20892;-69
2024/03/06 09:56:11;0.00;0.00;0.62;0.00;0.00;0.62;7.43;6.70;;;22.40;22.80;;;;;;2263289;61;20821;-68
2024/03/06 09:58:56;0.00;0.00;0.62;0.00;0.00;0.62;8.60;6.93;;;22.40;22.80;;;;;;2263457;61;20439;-68
2024/03/06 10:01:49;0.00;0.00;0.62;0.00;0.00;0.62;10.07;8.03;;;22.50;22.80;;;;;;2263186;61;20367;-68
2024/03/06 10:04:37;0.00;0.00;0.62;0.00;0.00;0.62;8.63;7.43;;;22.40;22.80;;;;;;2262970;61;20945;-68
2024/03/06 10:07:21;0.00;0.00;0.62;0.00;0.00;0.62;9.57;7.00;;;22.50;22.80;;;;;;2262991;61;20388;-69
2024/03/06 10:10:08;0.00;0.00;0.62;0.00;0.00;0.62;11.20;8.83;;;22.50;22.80;;;;;;2263090;61;21007;-68
2024/03/06 10:12:56;0.00;0.00;0.62;0.00;0.00;0.62;9.00;7.90;;;22.50;22.90;;;;;;2654549;45;20368;-68
2024/03/06 10:15:41;0.00;0.00;0.62;0.00;0.00;0.62;9.23;8.33;;;22.50;22.90;;;;;;2263078;61;20363;-68
2024/03/06 10:18:28;0.00;0.00;0.62;0.00;0.00;0.62;10.13;8.80;;;22.50;22.90;;;;;;2262805;61;20375;-68
2024/03/06 10:21:14;0.00;0.00;0.62;0.00;0.00;0.62;9.07;8.17;;;22.40;22.80;;;;;;2263474;61;20418;-70
2024/03/06 10:23:59;0.00;0.00;0.62;0.00;0.00;0.62;9.60;8.30;;;22.50;22.90;;;;;;2261900;61;20400;-68
2024/03/06 10:26:43;0.00;0.00;0.62;0.00;0.00;0.62;9.77;8.67;;;22.50;22.90;;;;;;2262798;61;20496;-68
2024/03/06 10:29:29;0.00;0.00;0.62;0.00;0.00;0.62;9.40;8.30;;;22.50;22.90;;;;;;2261107;61;20381;-68
2024/03/06 10:32:19;0.00;0.00;0.62;0.00;0.00;0.62;12.00;10.57;;;22.50;22.90;;;;;;2263180;61;20444;-68
2024/03/06 10:35:06;0.00;0.00;0.62;0.00;0.00;0.62;10.87;9.80;;;22.50;22.90;;;;;;2259116;61;20819;-70
2024/03/06 10:37:54;0.00;0.00;0.62;0.00;0.00;0.62;9.97;8.97;;;22.50;22.90;;;;;;2263130;61;20414;-68
2024/03/06 10:40:40;0.00;0.00;0.62;0.00;0.00;0.62;13.40;10.93;;;22.50;22.90;;;;;;2263086;61;20368;-68
2024/03/06 10:43:25;0.00;0.00;0.62;0.00;0.00;0.62;12.27;10.67;;;22.50;22.90;;;;;;2263354;61;20363;-68
2024/03/06 10:46:12;0.00;0.00;0.62;0.00;0.00;0.62;11.90;10.70;;;22.50;22.90;;;;;;2259026;61;20393;-68
2024/03/06 10:48:58;0.00;0.00;0.62;0.00;0.00;0.62;11.63;10.50;;;22.50;22.90;;;;;;2258654;61;20364;-68
2024/03/06 10:51:46;0.00;0.00;0.62;0.00;0.00;0.62;11.00;9.80;;;22.50;22.90;;;;;;2263068;61;20438;-68